Time;durP1;ratioP1;P1;durP2;ratioP2;P2;SDS_P1;SDS_P2;PMS_P1;PMS_P2;Temp;Humidity;BMP_temperature;BMP_pressure;BME280_temperature;BME280_humidity;BME280_pressure;Samples;Min_cycle;Max_cycle;Signal;HPM_P1;HPM_P2
2022/06/26 00:01:25;;;;;;;22.23;5.88;;;;;;;19.88;100.00;97389.53;5046656;28;20075;-80
2022/06/26 00:03:50;;;;;;;15.07;5.47;;;;;;;19.96;100.00;97369.78;5016504;28;20030;-80
2022/06/26 00:06:16;;;;;;;9.45;4.78;;;;;;;19.96;100.00;97369.78;5017513;28;20021;-80
2022/06/26 00:08:42;;;;;;;8.95;4.57;;;;;;;19.91;100.00;97355.78;5041323;28;20053;-80
2022/06/26 00:11:07;;;;;;;10.35;4.85;;;;;;;19.88;100.00;97350.69;5017454;28;20025;-80
2022/06/26 00:13:33;;;;;;;9.68;4.88;;;;;;;19.87;100.00;97357.97;5017290;28;20029;-80
2022/06/26 00:15:59;;;;;;;10.30;5.32;;;;;;;19.91;100.00;97366.66;5032990;28;20022;-80
2022/06/26 00:18:24;;;;;;;7.32;4.68;;;;;;;19.90;100.00;97360.38;5017025;28;20469;-79
2022/06/26 00:20:50;;;;;;;10.10;5.20;;;;;;;19.88;100.00;97359.69;5017070;28;20021;-79
2022/06/26 00:23:15;;;;;;;13.88;5.60;;;;;;;19.92;100.00;97358.38;5039458;28;20029;-80
2022/06/26 00:25:41;;;;;;;9.05;4.90;;;;;;;19.96;100.00;97365.16;5029669;28;20026;-79
2022/06/26 00:28:07;;;;;;;11.05;5.03;;;;;;;19.91;100.00;97367.50;4999618;28;20530;-80
2022/06/26 00:30:32;;;;;;;8.15;4.95;;;;;;;19.81;100.00;97365.91;5016991;28;20029;-80
2022/06/26 00:32:58;;;;;;;14.32;4.88;;;;;;;19.75;100.00;97371.97;5013591;28;20029;-79
2022/06/26 00:35:23;;;;;;;9.50;5.05;;;;;;;19.83;100.00;97375.59;5016926;28;20026;-80
2022/06/26 00:37:49;;;;;;;9.10;4.85;;;;;;;19.86;100.00;97380.72;5016839;28;20121;-80
2022/06/26 00:40:15;;;;;;;9.05;5.20;;;;;;;19.87;100.00;97381.56;5044365;28;20115;-80
2022/06/26 00:42:41;;;;;;;10.40;5.90;;;;;;;19.79;100.00;97389.63;5013604;28;20021;-79
2022/06/26 00:45:08;;;;;;;11.35;5.55;;;;;;;19.78;100.00;97377.91;5025134;28;20032;-80
2022/06/26 00:47:33;;;;;;;9.23;4.90;;;;;;;19.83;100.00;97383.75;5039280;28;20079;-80
2022/06/26 00:49:59;;;;;;;10.32;4.90;;;;;;;19.82;100.00;97392.88;5016099;28;20030;-79
2022/06/26 00:52:27;;;;;;;10.35;5.07;;;;;;;19.76;100.00;97387.22;5016963;28;20034;-80
2022/06/26 00:54:53;;;;;;;11.63;5.35;;;;;;;19.79;100.00;97395.06;5035720;28;20054;-80
2022/06/26 00:57:20;;;;;;;13.43;5.72;;;;;;;19.74;100.00;97392.81;5041825;28;20029;-80
2022/06/26 00:59:47;;;;;;;15.50;6.03;;;;;;;19.75;100.00;97402.66;5023255;28;20029;-80
2022/06/26 01:02:12;;;;;;;11.75;6.18;;;;;;;19.75;100.00;97405.38;5016074;28;20021;-81
2022/06/26 01:04:38;;;;;;;10.75;6.70;;;;;;;19.76;100.00;97404.38;5016625;28;20044;-80
2022/06/26 01:07:03;;;;;;;13.48;7.47;;;;;;;19.75;100.00;97399.13;5033257;28;20405;-80
2022/06/26 01:09:29;;;;;;;17.88;6.10;;;;;;;19.78;100.00;97399.63;5015461;28;20033;-80
2022/06/26 01:11:55;;;;;;;15.98;5.85;;;;;;;19.74;100.00;97402.81;5015484;28;20094;-79
2022/06/26 01:14:20;;;;;;;17.98;5.53;;;;;;;19.68;100.00;97396.16;5015973;28;20037;-79
2022/06/26 01:16:46;;;;;;;11.23;5.63;;;;;;;19.55;100.00;97386.69;5015892;28;20507;-79
2022/06/26 01:19:15;;;;;;;12.85;5.25;;;;;;;19.49;100.00;97382.72;5015617;28;20029;-80
2022/06/26 01:21:40;;;;;;;9.15;5.88;;;;;;;19.46;100.00;97377.63;5005491;28;20537;-79
2022/06/26 01:24:06;;;;;;;10.23;5.45;;;;;;;19.47;100.00;97384.75;5032399;28;20108;-79
2022/06/26 01:26:33;;;;;;;18.55;5.93;;;;;;;19.43;100.00;97386.06;5015436;28;20033;-80
2022/06/26 01:28:59;;;;;;;10.50;5.82;;;;;;;19.38;100.00;97377.50;5032083;28;20476;-79
2022/06/26 01:31:25;;;;;;;10.82;5.40;;;;;;;19.38;100.00;97375.63;5015811;28;20068;-80
2022/06/26 01:33:50;;;;;;;12.95;5.20;;;;;;;19.41;100.00;97380.78;5032285;28;20481;-79
2022/06/26 01:36:16;;;;;;;10.82;5.03;;;;;;;19.45;100.00;97375.91;5015294;28;20137;-80
2022/06/26 01:38:42;;;;;;;10.57;5.47;;;;;;;19.46;100.00;97373.03;5015642;28;20053;-79
2022/06/26 01:41:08;;;;;;;13.35;5.43;;;;;;;19.50;100.00;97375.44;5015534;28;20543;-80
2022/06/26 01:43:35;;;;;;;20.55;6.03;;;;;;;19.52;100.00;97385.13;5031772;28;20555;-79
2022/06/26 01:46:02;;;;;;;9.88;5.32;;;;;;;19.51;100.00;97380.72;5031854;28;20461;-80
2022/06/26 01:48:29;;;;;;;15.93;5.85;;;;;;;19.53;100.00;97389.56;5032031;28;20484;-80
2022/06/26 01:50:56;;;;;;;12.70;5.63;;;;;;;19.48;100.00;97381.88;5031972;28;20080;-80
2022/06/26 01:53:22;;;;;;;12.20;5.63;;;;;;;19.56;100.00;97397.41;4999125;28;20057;-80
2022/06/26 01:55:47;;;;;;;9.35;5.45;;;;;;;19.46;100.00;97397.47;5015407;28;20052;-80
2022/06/26 01:58:13;;;;;;;13.77;5.57;;;;;;;19.45;100.00;97397.59;5014742;28;20053;-80
2022/06/26 02:00:41;;;;;;;16.98;5.47;;;;;;;19.42;100.00;97409.63;5031659;28;20033;-80
2022/06/26 02:03:07;;;;;;;13.82;5.07;;;;;;;19.33;100.00;97410.50;5031410;28;20408;-80
2022/06/26 02:05:33;;;;;;;14.15;5.47;;;;;;;19.33;100.00;97417.78;5032027;28;20116;-80
2022/06/26 02:07:59;;;;;;;14.45;5.20;;;;;;;19.38;100.00;97423.63;4998856;28;20053;-81
2022/06/26 02:15:56;;;;;;;15.27;5.35;;;;;;;19.37;100.00;97432.75;5017471;28;20121;-80
2022/06/26 02:18:22;;;;;;;13.52;5.53;;;;;;;19.31;100.00;97428.81;4995237;28;20956;-79
2022/06/26 02:20:48;;;;;;;21.27;6.13;;;;;;;19.24;100.00;97438.53;5010914;28;20052;-81
2022/06/26 02:23:14;;;;;;;17.63;5.55;;;;;;;19.26;100.00;97430.25;5009399;28;20049;-80
2022/06/26 02:25:40;;;;;;;17.52;5.80;;;;;;;19.22;100.00;97428.84;5028163;28;20084;-80
2022/06/26 02:28:06;;;;;;;12.68;5.38;;;;;;;19.16;100.00;97434.88;5027592;28;20064;-79
2022/06/26 02:30:32;;;;;;;14.18;5.47;;;;;;;19.12;100.00;97417.19;4995076;28;20025;-79
2022/06/26 02:32:58;;;;;;;10.75;4.93;;;;;;;19.17;100.00;97425.72;5027433;28;20507;-80
2022/06/26 02:35:24;;;;;;;17.38;5.40;;;;;;;19.21;100.00;97427.16;5011030;28;20413;-81
2022/06/26 02:37:50;;;;;;;16.65;5.13;;;;;;;19.24;100.00;97434.97;5027793;28;20116;-80
2022/06/26 02:40:17;;;;;;;24.08;5.82;;;;;;;19.23;100.00;97425.97;5011245;28;20033;-81
2022/06/26 02:42:43;;;;;;;13.10;5.57;;;;;;;19.28;100.00;97426.41;5027545;28;20398;-79
2022/06/26 02:45:09;;;;;;;20.60;5.55;;;;;;;19.26;100.00;97414.81;5010210;28;20038;-80
2022/06/26 02:47:34;;;;;;;15.13;5.50;;;;;;;19.27;100.00;97410.25;5010874;28;20057;-79
2022/06/26 02:50:02;;;;;;;14.65;5.57;;;;;;;19.17;100.00;97404.03;4994542;28;20032;-80
2022/06/26 02:52:28;;;;;;;19.60;6.35;;;;;;;19.15;100.00;97398.78;5007864;28;20042;-79
2022/06/26 02:54:53;;;;;;;28.23;6.10;;;;;;;19.13;100.00;97408.06;4991818;28;20021;-79
2022/06/26 02:57:19;;;;;;;17.75;6.07;;;;;;;19.12;100.00;97404.50;5003018;28;20052;-80
2022/06/26 02:59:45;;;;;;;17.13;6.75;;;;;;;19.19;100.00;97412.88;5005586;28;20034;-81
2022/06/26 03:02:10;;;;;;;20.60;8.57;;;;;;;19.08;100.00;97416.66;5007577;28;20394;-80
2022/06/26 03:04:36;;;;;;;15.73;7.38;;;;;;;19.13;100.00;97427.91;4988696;28;20030;-81
2022/06/26 03:07:01;;;;;;;13.05;6.38;;;;;;;19.14;100.00;97448.59;5010713;28;20026;-81
2022/06/26 03:09:27;;;;;;;13.30;6.35;;;;;;;19.21;100.00;97441.56;4984982;28;20120;-80
2022/06/26 03:11:52;;;;;;;16.00;6.45;;;;;;;19.25;100.00;97440.25;5007721;28;20037;-80
2022/06/26 03:14:18;;;;;;;12.65;6.22;;;;;;;19.24;100.00;97443.13;5024784;28;20473;-79
2022/06/26 03:16:43;;;;;;;14.75;5.70;;;;;;;19.27;100.00;97431.97;5008654;28;20462;-81
2022/06/26 03:19:09;;;;;;;18.67;5.90;;;;;;;19.29;100.00;97440.78;4993495;28;20030;-80
2022/06/26 03:21:35;;;;;;;15.95;6.55;;;;;;;19.36;100.00;97452.75;4994724;28;20034;-80
2022/06/26 03:24:03;;;;;;;16.25;6.78;;;;;;;19.26;100.00;97451.94;5008259;28;20034;-80
2022/06/26 03:26:30;;;;;;;18.98;6.97;;;;;;;19.26;100.00;97454.66;5009446;28;20465;-79
2022/06/26 03:28:56;;;;;;;15.45;6.05;;;;;;;19.36;100.00;97453.59;5011386;28;20050;-79
2022/06/26 03:31:22;;;;;;;19.02;6.25;;;;;;;19.36;100.00;97453.59;5011396;28;20110;-80
2022/06/26 03:33:47;;;;;;;16.42;6.75;;;;;;;19.43;100.00;97459.31;5030465;28;20057;-80
2022/06/26 03:36:13;;;;;;;19.30;7.32;;;;;;;19.54;100.00;97456.38;5010150;28;20092;-79
2022/06/26 03:38:39;;;;;;;25.42;6.95;;;;;;;19.61;100.00;97468.34;4998568;28;20408;-80
2022/06/26 03:41:05;;;;;;;20.27;6.80;;;;;;;19.58;100.00;97465.06;4998423;28;20087;-80
2022/06/26 03:43:30;;;;;;;16.15;6.97;;;;;;;19.53;100.00;97470.97;5014907;28;20467;-80
2022/06/26 03:45:56;;;;;;;23.88;7.78;;;;;;;19.53;100.00;97462.84;5014979;28;20034;-80
2022/06/26 03:48:22;;;;;;;21.02;5.85;;;;;;;19.61;100.00;97473.75;5008700;28;20176;-80
2022/06/26 03:50:47;;;;;;;20.30;5.97;;;;;;;19.71;100.00;97480.00;5012304;28;20089;-79
2022/06/26 03:53:13;;;;;;;18.30;5.32;;;;;;;19.73;100.00;97471.69;5002187;28;20402;-79
2022/06/26 03:55:38;;;;;;;14.23;5.65;;;;;;;19.74;100.00;97482.41;5008842;28;20036;-79
2022/06/26 03:58:04;;;;;;;16.05;6.63;;;;;;;19.77;100.00;97473.94;5013996;28;20041;-81
2022/06/26 04:00:30;;;;;;;14.52;5.25;;;;;;;19.79;100.00;97471.06;4989533;28;20481;-80
2022/06/26 04:02:56;;;;;;;15.65;5.63;;;;;;;19.72;100.00;97468.09;5009834;28;20096;-80
2022/06/26 04:05:22;;;;;;;11.70;5.53;;;;;;;19.80;100.00;97479.06;5014497;28;20037;-81
2022/06/26 04:07:48;;;;;;;16.42;5.63;;;;;;;19.80;100.00;97481.78;5013699;28;20032;-80
2022/06/26 04:10:13;;;;;;;18.30;5.30;;;;;;;19.81;100.00;97479.94;5011266;28;20446;-79
2022/06/26 04:12:39;;;;;;;16.38;5.43;;;;;;;19.69;100.00;97476.56;4997390;28;20108;-79
2022/06/26 04:15:06;;;;;;;18.25;5.38;;;;;;;19.65;100.00;97480.59;5013700;28;20033;-79
2022/06/26 04:17:31;;;;;;;13.45;5.20;;;;;;;19.65;100.00;97477.03;5013635;28;20029;-80
2022/06/26 04:19:57;;;;;;;18.25;6.13;;;;;;;19.74;100.00;97478.81;4997626;28;20116;-80
2022/06/26 04:22:22;;;;;;;17.10;5.75;;;;;;;19.74;100.00;97468.81;4997765;28;20030;-80
2022/06/26 04:24:48;;;;;;;12.88;5.60;;;;;;;19.84;100.00;97477.72;5013870;28;20025;-80
2022/06/26 04:27:14;;;;;;;10.18;5.50;;;;;;;19.93;100.00;97475.97;4997200;28;20153;-81
2022/06/26 04:29:40;;;;;;;12.98;5.10;;;;;;;19.88;100.00;97472.84;5003073;28;20034;-80
2022/06/26 04:32:06;;;;;;;7.57;4.82;;;;;;;19.81;100.00;97469.91;5001226;28;20026;-81
2022/06/26 04:34:33;;;;;;;17.98;5.05;;;;;;;19.82;100.00;97457.19;5008071;28;20120;-81
2022/06/26 04:36:59;;;;;;;10.35;5.18;;;;;;;19.83;100.00;97451.63;5029779;28;20461;-80
2022/06/26 04:39:24;;;;;;;7.93;4.90;;;;;;;19.98;100.00;97460.91;4993890;28;20061;-81
2022/06/26 04:41:50;;;;;;;7.93;4.70;;;;;;;20.05;100.00;97463.00;5013909;28;20085;-81
2022/06/26 04:44:17;;;;;;;13.30;5.00;;;;;;;20.20;100.00;97465.03;5012752;28;20030;-81
2022/06/26 04:46:46;;;;;;;12.02;5.25;;;;;;;20.31;100.00;97456.66;5010016;28;20492;-81
2022/06/26 04:49:12;;;;;;;10.52;5.47;;;;;;;20.39;100.00;97464.03;5012317;28;20072;-81
2022/06/26 04:51:40;;;;;;;13.10;4.97;;;;;;;20.49;100.00;97456.59;5029755;28;20117;-80
2022/06/26 04:54:07;;;;;;;9.15;4.55;;;;;;;20.64;100.00;97455.00;5030078;28;20029;-81
2022/06/26 04:56:33;;;;;;;13.40;4.63;;;;;;;20.76;100.00;97470.06;5013409;28;20092;-82
2022/06/26 04:58:59;;;;;;;10.10;4.80;;;;;;;20.82;100.00;97461.28;5013569;28;20026;-80
2022/06/26 05:01:25;;;;;;;10.20;4.30;;;;;;;20.87;100.00;97458.06;5029909;28;20025;-79
2022/06/26 05:03:51;;;;;;;12.07;4.85;;;;;;;20.96;100.00;97463.38;5029349;28;20037;-85
2022/06/26 05:06:17;;;;;;;9.85;4.80;;;;;;;21.08;100.00;97463.94;4997213;28;20030;-85
2022/06/26 05:08:42;;;;;;;11.35;5.55;;;;;;;21.07;100.00;97454.94;4997150;28;20382;-87
2022/06/26 05:11:08;;;;;;;9.70;5.20;;;;;;;21.01;100.00;97466.47;5011262;28;20022;-85
2022/06/26 05:13:34;;;;;;;11.02;5.38;;;;;;;20.96;100.00;97479.72;5004093;28;20034;-87
2022/06/26 05:15:59;;;;;;;15.82;5.93;;;;;;;21.01;100.00;97482.78;5030234;28;20034;-83
2022/06/26 05:18:26;;;;;;;15.55;6.35;;;;;;;20.96;100.00;97485.16;5013772;28;20048;-82
2022/06/26 05:20:52;;;;;;;16.77;7.22;;;;;;;20.89;100.00;97485.94;5013485;28;20025;-83
2022/06/26 05:23:17;;;;;;;14.07;6.78;;;;;;;20.98;100.00;97491.25;5012268;28;20472;-85
2022/06/26 05:25:43;;;;;;;18.15;6.43;;;;;;;21.08;100.00;97496.59;5012346;28;20032;-81
2022/06/26 05:28:10;;;;;;;17.75;6.15;;;;;;;21.15;100.00;97483.22;5011949;28;20116;-81
2022/06/26 05:30:35;;;;;;;13.93;6.93;;;;;;;21.17;100.00;97489.34;5028239;28;20205;-84
2022/06/26 05:33:01;;;;;;;20.10;6.47;;;;;;;21.40;100.00;97499.53;4996156;28;20116;-85
2022/06/26 05:35:27;;;;;;;12.88;6.50;;;;;;;21.37;100.00;97501.72;5028772;28;20038;-83
2022/06/26 05:37:53;;;;;;;18.40;6.75;;;;;;;21.54;100.00;97498.03;5028253;28;20018;-80
2022/06/26 05:40:18;;;;;;;13.68;6.70;;;;;;;21.65;100.00;97508.66;5011591;28;20089;-79
2022/06/26 05:42:44;;;;;;;16.08;7.97;;;;;;;21.55;100.00;97505.19;5028894;28;20100;-79
2022/06/26 05:45:10;;;;;;;19.08;7.43;;;;;;;21.72;100.00;97519.72;4995367;28;20073;-87
2022/06/26 05:47:39;;;;;;;14.23;7.20;;;;;;;21.75;100.00;97513.97;5012351;28;20044;-83
2022/06/26 05:50:05;;;;;;;14.77;5.93;;;;;;;21.91;100.00;97514.88;5012321;28;20065;-80
2022/06/26 05:52:31;;;;;;;13.02;5.63;;;;;;;22.05;100.00;97516.97;5011944;28;20473;-82
2022/06/26 05:54:57;;;;;;;8.98;5.35;;;;;;;22.28;100.00;97521.75;5002364;28;20059;-82
2022/06/26 05:57:23;;;;;;;16.42;5.80;;;;;;;22.48;100.00;97512.25;5011648;28;20030;-79
2022/06/26 05:59:49;;;;;;;12.20;6.05;;;;;;;22.57;100.00;97519.41;5010417;28;20037;-79
2022/06/26 06:02:15;;;;;;;12.70;5.28;;;;;;;22.58;100.00;97512.91;5011572;28;20030;-80
2022/06/26 06:04:40;;;;;;;16.27;6.40;;;;;;;22.89;100.00;97516.66;5028961;28;20449;-83
2022/06/26 06:07:06;;;;;;;11.60;5.50;;;;;;;23.30;100.00;97513.84;5029732;28;20037;-79
2022/06/26 06:09:32;;;;;;;11.13;5.40;;;;;;;23.83;100.00;97516.78;5009228;28;20077;-79
2022/06/26 06:11:58;;;;;;;8.25;5.15;;;;;;;24.19;97.59;97512.47;5004020;28;20461;-85
2022/06/26 06:14:24;;;;;;;14.45;5.15;;;;;;;23.65;100.00;97516.16;4996804;28;20033;-79
2022/06/26 06:16:49;;;;;;;9.48;4.95;;;;;;;23.92;96.97;97510.22;4995798;28;20072;-81
2022/06/26 06:19:15;;;;;;;9.82;4.20;;;;;;;24.20;94.30;97508.72;5013034;28;20105;-79
2022/06/26 06:21:40;;;;;;;7.90;3.92;;;;;;;24.39;92.63;97515.59;5028671;28;20045;-85
2022/06/26 06:24:06;;;;;;;16.15;5.93;;;;;;;24.66;91.03;97514.19;4996134;28;20473;-79
2022/06/26 06:26:32;;;;;;;13.98;5.15;;;;;;;24.72;90.12;97521.66;5027332;28;20026;-79
2022/06/26 06:28:58;;;;;;;8.52;4.90;;;;;;;24.69;89.35;97519.28;5034845;28;20132;-77
2022/06/26 06:31:24;;;;;;;11.65;4.50;;;;;;;24.78;83.06;97520.94;5010616;28;20030;-77
2022/06/26 06:33:49;;;;;;;10.32;3.97;;;;;;;24.57;83.24;97524.34;5019584;28;20055;-77
2022/06/26 06:36:15;;;;;;;8.93;4.18;;;;;;;24.65;83.88;97517.94;5039959;28;20108;-77
2022/06/26 06:38:40;;;;;;;13.13;4.47;;;;;;;24.99;81.23;97515.63;5028036;28;20416;-78
2022/06/26 06:41:06;;;;;;;15.50;4.30;;;;;;;25.24;79.86;97516.22;5010550;28;20033;-77
2022/06/26 06:43:32;;;;;;;11.40;4.35;;;;;;;25.10;82.05;97523.38;5013265;28;20056;-78
2022/06/26 06:45:57;;;;;;;11.73;4.45;;;;;;;24.53;84.28;97525.75;5011006;28;20030;-78
2022/06/26 06:48:24;;;;;;;10.80;4.32;;;;;;;24.70;84.30;97521.00;5029819;28;20496;-77
2022/06/26 06:50:53;;;;;;;9.07;4.82;;;;;;;25.12;80.82;97515.84;5029669;28;20040;-77
2022/06/26 06:53:19;;;;;;;7.93;4.53;;;;;;;25.29;79.77;97511.03;5029839;28;20112;-78
2022/06/26 06:55:45;;;;;;;11.80;4.43;;;;;;;25.42;80.51;97521.34;5011442;28;20092;-76
2022/06/26 06:58:11;;;;;;;12.07;4.55;;;;;;;25.61;77.80;97515.31;5029857;28;20030;-76
2022/06/26 07:00:37;;;;;;;12.48;3.97;;;;;;;25.17;79.03;97524.34;5029994;28;20033;-79
2022/06/26 07:03:04;;;;;;;17.95;4.32;;;;;;;26.12;76.10;97518.91;5013241;28;20021;-79
2022/06/26 07:05:30;;;;;;;13.00;4.20;;;;;;;27.00;72.10;97510.38;5029935;28;20492;-80
2022/06/26 07:07:56;;;;;;;11.18;4.25;;;;;;;28.09;67.36;97507.72;5029208;28;20064;-79
2022/06/26 07:10:22;;;;;;;20.50;4.43;;;;;;;28.98;64.21;97509.19;5029883;28;20029;-79
2022/06/26 07:12:52;;;;;;;16.50;4.78;;;;;;;28.41;64.70;97514.38;5029794;28;20445;-78
2022/06/26 07:15:18;;;;;;;10.18;5.03;;;;;;;27.63;66.50;97525.84;5030287;28;20083;-78
2022/06/26 07:17:43;;;;;;;17.02;5.05;;;;;;;26.97;67.53;97517.13;5013449;28;20029;-79
2022/06/26 07:20:10;;;;;;;8.88;4.68;;;;;;;26.98;67.73;97518.81;5013433;28;20131;-79
2022/06/26 07:22:35;;;;;;;9.77;3.97;;;;;;;26.71;68.75;97525.09;5012944;28;20026;-79
2022/06/26 07:25:01;;;;;;;11.57;4.60;;;;;;;26.89;69.80;97520.00;5029535;28;20032;-80
2022/06/26 07:27:26;;;;;;;12.55;4.68;;;;;;;26.38;72.55;97524.75;5012978;28;20040;-79
2022/06/26 07:29:52;;;;;;;9.25;4.50;;;;;;;25.45;75.83;97516.34;5029382;28;20048;-80
2022/06/26 07:32:18;;;;;;;9.73;4.80;;;;;;;26.93;71.62;97524.06;5013189;28;20033;-80
2022/06/26 07:34:44;;;;;;;6.55;4.00;;;;;;;27.39;69.19;97527.16;5029704;28;20052;-80
2022/06/26 07:37:09;;;;;;;7.45;4.43;;;;;;;27.56;67.79;97514.84;5013252;28;20032;-80
2022/06/26 07:39:35;;;;;;;10.43;4.65;;;;;;;27.55;67.80;97517.78;5029812;28;20037;-79
2022/06/26 07:42:01;;;;;;;18.52;5.25;;;;;;;27.74;65.91;97519.81;5029267;28;20087;-80
2022/06/26 07:44:26;;;;;;;13.32;4.63;;;;;;;27.62;66.94;97518.69;5013275;28;20033;-80
2022/06/26 07:46:52;;;;;;;12.73;4.10;;;;;;;28.32;64.58;97515.63;5012732;28;20045;-80
2022/06/26 07:49:18;;;;;;;10.15;4.47;;;;;;;29.15;62.02;97509.63;5013078;28;20046;-80
2022/06/26 07:51:43;;;;;;;14.13;4.75;;;;;;;29.78;60.03;97505.28;5029164;28;20068;-79
2022/06/26 07:54:09;;;;;;;5.82;4.10;;;;;;;29.31;60.43;97511.13;5011871;28;20095;-79
2022/06/26 07:56:35;;;;;;;11.63;4.70;;;;;;;29.86;59.16;97498.72;5012626;28;20091;-79
2022/06/26 07:59:01;;;;;;;7.70;3.83;;;;;;;30.15;58.30;97508.41;5014342;28;20445;-79
2022/06/26 08:01:27;;;;;;;12.48;4.20;;;;;;;29.81;58.06;97496.59;5033656;28;20030;-80
2022/06/26 08:03:53;;;;;;;9.98;4.45;;;;;;;29.55;58.78;97503.03;5041161;28;20029;-80
2022/06/26 08:06:19;;;;;;;9.98;4.60;;;;;;;29.58;58.46;97508.13;5028969;28;20099;-80
2022/06/26 08:08:45;;;;;;;7.90;4.55;;;;;;;29.26;58.06;97509.00;5045626;28;20104;-80
2022/06/26 08:11:10;;;;;;;14.90;4.35;;;;;;;29.18;59.75;97506.44;5012589;28;20475;-80
2022/06/26 08:13:36;;;;;;;17.17;5.80;;;;;;;29.13;59.89;97517.28;5045671;28;20121;-79
2022/06/26 08:16:02;;;;;;;14.05;4.85;;;;;;;28.27;61.22;97510.75;5010852;28;20405;-79
2022/06/26 08:18:27;;;;;;;8.07;4.03;;;;;;;28.31;61.72;97514.78;5031772;28;20029;-85
2022/06/26 08:20:53;;;;;;;6.03;3.90;;;;;;;27.90;63.09;97520.28;5015279;28;20029;-87
2022/06/26 08:23:18;;;;;;;12.25;4.10;;;;;;;27.48;64.64;97506.75;5051274;28;20025;-86
2022/06/26 08:25:44;;;;;;;17.48;9.25;;;;;;;27.73;64.99;97518.94;5051656;28;20188;-87
2022/06/26 08:28:10;;;;;;;20.98;7.70;;;;;;;27.67;64.33;97507.91;5015088;28;20108;-88
2022/06/26 08:30:35;;;;;;;14.55;4.65;;;;;;;27.30;65.06;97520.13;5032456;28;20033;-88
2022/06/26 08:33:01;;;;;;;11.25;4.40;;;;;;;27.63;65.08;97515.72;5008028;28;20026;-88
2022/06/26 08:35:27;;;;;;;7.10;3.92;;;;;;;27.96;62.19;97516.72;5014849;28;20026;-88
2022/06/26 08:37:54;;;;;;;11.02;4.05;;;;;;;27.59;63.29;97506.19;5031607;28;20420;-89
2022/06/26 08:40:19;;;;;;;12.02;4.43;;;;;;;28.29;61.53;97519.66;5009304;28;20464;-86
2022/06/26 08:42:49;;;;;;;8.38;4.07;;;;;;;28.11;61.29;97519.38;5031029;28;20018;-88
2022/06/26 08:45:17;;;;;;;10.60;4.50;;;;;;;29.04;58.93;97516.63;5007115;28;20104;-88
2022/06/26 08:47:43;;;;;;;19.65;6.60;;;;;;;29.46;57.92;97515.34;5031800;28;20489;-88
2022/06/26 08:50:09;;;;;;;12.48;5.10;;;;;;;30.23;56.75;97522.78;5007986;28;20041;-89
2022/06/26 08:52:35;;;;;;;10.77;4.00;;;;;;;30.54;55.19;97511.81;5031162;28;20022;-88
2022/06/26 08:55:03;;;;;;;10.75;4.15;;;;;;;31.05;53.88;97513.59;5031874;28;20038;-86
2022/06/26 08:57:29;;;;;;;8.52;4.10;;;;;;;31.09;51.96;97501.03;5030224;28;20037;-87
2022/06/26 08:59:55;;;;;;;11.60;4.57;;;;;;;31.12;52.33;97501.44;5007902;28;20018;-87
2022/06/26 09:02:20;;;;;;;9.48;4.25;;;;;;;32.70;48.40;97506.03;5030992;28;20022;-88
2022/06/26 09:04:46;;;;;;;12.88;3.35;;;;;;;34.43;44.54;97489.66;5013380;28;20033;-87
2022/06/26 09:07:11;;;;;;;11.68;3.45;;;;;;;34.72;43.36;97482.22;5030642;28;20432;-84
2022/06/26 09:09:40;;;;;;;10.80;4.68;;;;;;;34.62;42.98;97484.78;4998525;28;20054;-89
2022/06/26 09:12:06;;;;;;;8.60;3.55;;;;;;;36.07;39.74;97468.00;5006286;28;20476;-90
2022/06/26 09:14:32;;;;;;;11.52;4.93;;;;;;;35.89;40.64;97474.72;5030697;28;20108;-90
2022/06/26 09:16:58;;;;;;;8.45;3.60;;;;;;;35.89;39.93;97475.56;5030766;28;20080;-90
2022/06/26 09:19:28;;;;;;;7.47;3.20;;;;;;;37.13;38.07;97475.63;5009777;28;20037;-89
2022/06/26 09:22:09;;;;;;;6.13;3.33;;;;;;;38.31;36.02;97465.00;5002522;28;20465;-90
2022/06/26 09:24:37;;;;;;;6.53;3.03;;;;;;;38.24;34.53;97454.06;5000720;28;20038;-90
2022/06/26 09:27:15;;;;;;;12.05;3.15;;;;;;;38.43;34.33;97446.06;5030431;28;20037;-89
2022/06/26 09:29:42;;;;;;;7.47;3.25;;;;;;;38.70;34.83;97454.25;5029404;28;20033;-89
2022/06/26 09:32:09;;;;;;;11.57;3.25;;;;;;;39.49;33.05;97451.81;5005495;28;20038;-90
2022/06/26 09:34:35;;;;;;;6.25;3.20;;;;;;;39.26;33.68;97446.78;5005014;28;20117;-89
2022/06/26 09:37:03;;;;;;;9.30;2.60;;;;;;;38.52;32.39;97432.41;5029574;28;20036;-90
2022/06/26 09:39:33;;;;;;;7.65;2.45;;;;;;;39.35;30.19;97433.88;5010995;28;20037;-88
2022/06/26 09:42:19;;;;;;;4.70;2.40;;;;;;;37.99;31.93;97438.03;5030335;28;20058;-87
2022/06/26 09:44:57;;;;;;;4.85;2.60;;;;;;;38.41;31.87;97446.34;5009193;28;20073;-87
2022/06/26 09:47:28;;;;;;;5.22;2.55;;;;;;;37.68;32.22;97432.53;5013326;28;20511;-89
2022/06/26 09:49:55;;;;;;;6.68;2.80;;;;;;;37.32;33.12;97442.56;4997684;28;20113;-87
2022/06/26 09:52:22;;;;;;;11.70;3.13;;;;;;;38.77;32.04;97447.25;5013036;28;20042;-88
2022/06/26 09:54:48;;;;;;;7.10;2.70;;;;;;;37.21;33.39;97440.81;5000013;28;20029;-88
2022/06/26 09:57:15;;;;;;;3.67;2.55;;;;;;;36.32;34.76;97446.03;5029833;28;20029;-87
2022/06/26 09:59:41;;;;;;;11.65;2.50;;;;;;;36.63;34.56;97445.31;5012648;28;20025;-87
2022/06/26 10:07:48;;;;;;;6.32;2.42;;;;;;;37.20;33.18;97436.34;4994295;28;19964;-88
2022/06/26 10:10:14;;;;;;;8.38;2.90;;;;;;;37.12;33.59;97420.94;4976291;28;20351;-88
2022/06/26 10:12:40;;;;;;;7.07;2.58;;;;;;;39.21;31.28;97425.19;4993347;28;20524;-88
2022/06/26 10:15:07;;;;;;;10.00;2.88;;;;;;;38.97;32.04;97419.34;5010737;28;20073;-88
2022/06/26 10:17:46;;;;;;;8.63;3.83;;;;;;;39.37;31.18;97423.25;4977812;28;20037;-87
2022/06/26 10:20:15;;;;;;;4.40;2.50;;;;;;;39.48;31.25;97408.97;5010396;28;20030;-87
2022/06/26 10:22:45;;;;;;;7.78;2.40;;;;;;;37.26;33.69;97405.41;4963604;28;20409;-86
2022/06/26 10:25:31;;;;;;;11.55;2.90;;;;;;;39.83;30.66;97404.41;5026163;28;20084;-87
2022/06/26 10:27:57;;;;;;;8.93;3.80;;;;;;;41.00;29.23;97405.50;4995924;28;20053;-87
2022/06/26 10:30:25;;;;;;;7.82;3.10;;;;;;;40.59;29.48;97388.09;4997221;28;20029;-88
2022/06/26 10:33:08;;;;;;;5.20;2.97;;;;;;;38.18;32.61;97401.22;5013319;28;20121;-87
2022/06/26 10:35:42;;;;;;;5.80;2.70;;;;;;;37.23;33.90;97413.47;4996970;28;20033;-88
2022/06/26 10:38:22;;;;;;;8.82;2.85;;;;;;;36.38;35.82;97417.13;4996497;28;20113;-88
2022/06/26 10:44:01;;;;;;;7.03;2.63;;;;;;;33.96;37.70;97421.47;5012520;28;20127;-88
2022/06/26 10:46:35;;;;;;;6.63;2.40;;;;;;;33.48;38.54;97414.28;5009809;28;20216;-88
2022/06/26 10:49:04;;;;;;;11.93;2.50;;;;;;;32.85;39.49;97418.84;5021013;28;20033;-87
2022/06/26 10:51:30;;;;;;;10.32;3.10;;;;;;;33.00;40.03;97417.28;5028393;28;20036;-87
2022/06/26 10:53:56;;;;;;;4.13;1.92;;;;;;;34.93;36.22;97411.09;5030184;28;20025;-88
2022/06/26 10:56:22;;;;;;;5.95;2.58;;;;;;;36.18;34.44;97409.34;5011918;28;20089;-88
2022/06/26 10:58:48;;;;;;;5.32;2.38;;;;;;;37.30;32.59;97402.94;5027538;28;20108;-88
2022/06/26 11:01:20;;;;;;;6.20;2.33;;;;;;;39.23;30.44;97392.19;4997264;28;20036;-88
2022/06/26 11:03:46;;;;;;;4.93;2.10;;;;;;;38.18;30.45;97385.28;5002832;28;20502;-88
2022/06/26 11:06:14;;;;;;;3.13;1.92;;;;;;;38.06;31.57;97387.47;4996827;28;20061;-88
2022/06/26 11:08:44;;;;;;;7.10;2.00;;;;;;;39.11;29.74;97379.56;5004006;28;20044;-88
2022/06/26 11:11:14;;;;;;;53.60;38.00;;;;;;;40.06;29.10;97384.97;5028514;28;20034;-89
2022/06/26 11:13:56;;;;;;;14.98;10.02;;;;;;;41.02;28.36;97375.16;5027714;28;20042;-88
2022/06/26 11:16:38;;;;;;;9.30;3.30;;;;;;;41.50;27.27;97376.16;5007589;28;20089;-88
2022/06/26 11:19:08;;;;;;;4.22;2.28;;;;;;;41.33;27.00;97375.72;4996598;28;20045;-88
2022/06/26 11:21:33;;;;;;;4.10;2.10;;;;;;;41.25;26.84;97356.72;4996350;28;20022;-88
2022/06/26 11:24:00;;;;;;;6.93;1.80;;;;;;;40.37;27.19;97362.41;5029557;28;20033;-87
2022/06/26 11:26:26;;;;;;;3.80;1.90;;;;;;;39.84;27.94;97358.47;5013228;28;20022;-87
2022/06/26 11:29:00;;;;;;;3.45;2.20;;;;;;;37.84;30.33;97367.25;5012633;28;20045;-87
2022/06/26 11:31:30;;;;;;;6.05;2.25;;;;;;;36.57;32.19;97373.00;5012254;28;20053;-87
2022/06/26 11:34:10;;;;;;;6.47;2.83;;;;;;;35.46;34.38;97377.19;5012840;28;20049;-88
2022/06/26 11:36:36;;;;;;;7.20;2.80;;;;;;;33.82;36.57;97381.16;5011925;28;20106;-86